Air Navigation Services of Czech Republic
Airport: LKPJ Updated:  28.01.2021 01:33:24  UTC
 SPECI LKPJ 28.01. 01:36 ...
SPECI LKPJ 280136Z AUTO VRB02KT 2900 BR FEW038 M04/M05 Q1012=